Time;durP1;ratioP1;P1;durP2;ratioP2;P2;SDS_P1;SDS_P2;PMS_P1;PMS_P2;Temp;Humidity;BMP_temperature;BMP_pressure;BME280_temperature;BME280_humidity;BME280_pressure;Samples;Min_cycle;Max_cycle;Signal;HPM_P1;HPM_P2
2021/12/26 00:01:31;;;;;;;10.13;3.05;;;-5.80;99.90;;;;;;5109516;27;20053;-81
2021/12/26 00:03:57;;;;;;;9.13;3.20;;;-7.00;99.90;;;;;;5121425;27;20047;-82
2021/12/26 00:06:26;;;;;;;6.50;2.60;;;-7.00;99.90;;;;;;5110721;27;20054;-81
2021/12/26 00:08:53;;;;;;;6.10;2.55;;;-5.30;99.90;;;;;;5089117;27;20043;-81
2021/12/26 00:11:18;;;;;;;8.15;2.90;;;-6.90;99.90;;;;;;5102370;27;20137;-81
2021/12/26 00:13:45;;;;;;;6.45;2.30;;;-6.90;99.90;;;;;;5139983;27;20535;-81
2021/12/26 00:16:11;;;;;;;10.75;3.03;;;-6.90;99.90;;;;;;5091979;27;20087;-81
2021/12/26 00:18:42;;;;;;;6.35;2.60;;;-6.90;99.90;;;;;;5089583;27;20039;-81
2021/12/26 00:21:08;;;;;;;4.97;2.10;;;-6.30;99.90;;;;;;5111135;27;20295;-81
2021/12/26 00:23:34;;;;;;;7.45;2.50;;;-6.90;99.90;;;;;;5106818;27;20126;-81
2021/12/26 00:26:00;;;;;;;7.70;2.63;;;-6.90;99.90;;;;;;5093854;27;20138;-81
2021/12/26 00:28:25;;;;;;;8.10;2.60;;;-6.80;99.90;;;;;;5105896;27;20035;-82
2021/12/26 00:30:51;;;;;;;7.18;2.80;;;-6.80;99.90;;;;;;5077328;27;20043;-82
2021/12/26 00:33:17;;;;;;;9.88;2.70;;;-6.20;99.90;;;;;;5084046;27;20070;-82
2021/12/26 00:35:42;;;;;;;6.50;2.55;;;-6.70;99.90;;;;;;5104224;27;20043;-82
2021/12/26 00:38:09;;;;;;;8.23;2.88;;;-6.70;99.90;;;;;;5081860;27;20522;-81
2021/12/26 00:40:35;;;;;;;8.73;2.70;;;-6.70;99.90;;;;;;5097381;27;20058;-82
2021/12/26 00:43:01;;;;;;;11.82;2.92;;;-6.70;99.90;;;;;;5094413;27;20043;-82
2021/12/26 00:45:27;;;;;;;8.35;2.58;;;-5.80;99.90;;;;;;5085266;27;20050;-81
2021/12/26 00:47:53;;;;;;;9.38;3.20;;;-6.40;99.90;;;;;;5104173;27;20081;-81
2021/12/26 00:50:29;;;;;;;10.10;3.53;;;-6.40;99.90;;;;;;5074904;27;20460;-81
2021/12/26 00:52:56;;;;;;;9.10;3.10;;;-5.30;99.90;;;;;;5086459;27;20054;-81
2021/12/26 00:55:22;;;;;;;9.98;3.40;;;-6.50;99.90;;;;;;5104309;27;20074;-82
2021/12/26 00:57:48;;;;;;;9.07;3.10;;;-6.80;99.90;;;;;;5100179;27;20051;-81
2021/12/26 01:00:20;;;;;;;11.75;3.00;;;-5.40;99.90;;;;;;5078382;27;20071;-81
2021/12/26 01:02:47;;;;;;;7.13;2.67;;;-6.80;99.90;;;;;;5095277;27;20047;-82
2021/12/26 01:05:14;;;;;;;6.78;2.80;;;-6.80;99.90;;;;;;5078067;27;20434;-81
2021/12/26 01:07:58;;;;;;;9.18;2.75;;;-6.80;99.90;;;;;;5095832;27;20054;-81
2021/12/26 01:10:26;;;;;;;4.35;1.85;;;-6.60;99.90;;;;;;5097576;27;20043;-81
2021/12/26 01:12:53;;;;;;;8.18;2.33;;;-6.10;99.90;;;;;;5094181;27;20043;-81
2021/12/26 01:15:22;;;;;;;7.93;3.28;;;-6.40;99.90;;;;;;5109945;27;20044;-81
2021/12/26 01:17:54;;;;;;;9.35;2.70;;;-6.70;99.90;;;;;;5096034;27;20074;-81
2021/12/26 01:20:42;;;;;;;5.60;2.33;;;-5.60;99.90;;;;;;5080054;27;20055;-81
2021/12/26 01:23:09;;;;;;;6.57;2.75;;;-6.70;99.90;;;;;;5103194;27;20092;-82
2021/12/26 01:25:35;;;;;;;8.35;2.17;;;-6.70;99.90;;;;;;5085213;27;20039;-81
2021/12/26 01:28:03;;;;;;;8.43;2.40;;;-6.70;99.90;;;;;;5081627;27;20452;-81
2021/12/26 01:30:28;;;;;;;8.63;2.60;;;-6.80;99.90;;;;;;5118341;27;20657;-81
2021/12/26 01:32:54;;;;;;;8.35;2.55;;;-5.50;99.90;;;;;;5082220;27;20362;-82
2021/12/26 01:35:21;;;;;;;11.63;2.92;;;-5.60;99.90;;;;;;5082082;27;20048;-82
2021/12/26 01:37:47;;;;;;;7.40;2.45;;;-5.90;99.90;;;;;;5083454;27;20419;-81
2021/12/26 01:40:13;;;;;;;7.03;2.53;;;-6.90;99.90;;;;;;5095150;27;20070;-81
2021/12/26 01:42:38;;;;;;;6.43;2.40;;;-6.90;99.90;;;;;;5081636;28;20096;-81
2021/12/26 01:45:07;;;;;;;5.43;2.10;;;-5.70;99.90;;;;;;5095792;27;20538;-81
2021/12/26 01:47:33;;;;;;;9.98;2.55;;;-6.90;99.90;;;;;;5094710;28;20047;-81
2021/12/26 01:49:58;;;;;;;9.18;2.70;;;-6.90;99.90;;;;;;5098357;28;20097;-81
2021/12/26 01:52:24;;;;;;;9.40;2.90;;;-6.90;99.90;;;;;;5093430;27;20495;-81
2021/12/26 01:55:00;;;;;;;5.28;2.33;;;-7.00;99.90;;;;;;5098271;27;20043;-81
2021/12/26 01:57:26;;;;;;;7.20;2.33;;;-6.00;99.90;;;;;;5087637;27;20051;-81
2021/12/26 01:59:52;;;;;;;7.55;2.78;;;-7.00;99.90;;;;;;5103223;27;20031;-81
2021/12/26 02:02:18;;;;;;;7.95;2.70;;;-7.00;99.90;;;;;;5080202;27;20076;-82
2021/12/26 02:04:44;;;;;;;7.93;2.30;;;-6.50;99.90;;;;;;5098620;27;20047;-81
2021/12/26 02:07:11;;;;;;;6.32;2.28;;;-7.00;99.90;;;;;;5093362;27;20292;-81
2021/12/26 02:09:37;;;;;;;6.85;2.28;;;-7.00;99.90;;;;;;5077958;27;20054;-81
2021/12/26 02:12:04;;;;;;;6.43;2.30;;;-6.40;99.90;;;;;;5079287;27;20067;-82
2021/12/26 02:14:31;;;;;;;5.57;2.40;;;-7.00;99.90;;;;;;5078080;27;20087;-81
2021/12/26 02:16:57;;;;;;;6.93;2.47;;;-7.00;99.90;;;;;;5095787;27;20043;-82
2021/12/26 02:19:23;;;;;;;9.20;2.50;;;-7.00;99.90;;;;;;5080674;28;20713;-82
2021/12/26 02:22:10;;;;;;;8.45;2.53;;;-6.10;99.90;;;;;;5105937;27;20056;-81
2021/12/26 02:27:32;;;;;;;8.68;2.80;;;-6.60;99.90;;;;;;5077519;27;20054;-81
2021/12/26 02:30:09;;;;;;;7.20;2.22;;;-7.10;99.90;;;;;;5099809;28;20054;-82
2021/12/26 02:32:35;;;;;;;7.22;2.28;;;-7.10;99.90;;;;;;5097151;28;20054;-82
2021/12/26 02:35:01;;;;;;;8.38;2.47;;;-6.30;99.90;;;;;;5089524;27;20039;-83
2021/12/26 02:37:27;;;;;;;6.15;2.00;;;-6.30;99.90;;;;;;5094236;27;20052;-82
2021/12/26 02:39:53;;;;;;;4.18;1.90;;;-6.00;99.90;;;;;;5082138;27;20042;-82
2021/12/26 02:42:21;;;;;;;5.65;1.92;;;-7.00;99.90;;;;;;5067690;27;20047;-82
2021/12/26 02:44:47;;;;;;;5.25;2.15;;;-7.00;99.90;;;;;;5075076;27;20543;-82
2021/12/26 02:47:14;;;;;;;7.80;2.08;;;-6.20;99.90;;;;;;5092395;27;20035;-82
2021/12/26 02:49:40;;;;;;;6.05;1.92;;;-7.00;99.90;;;;;;5060800;27;20047;-82
2021/12/26 02:52:06;;;;;;;7.80;2.17;;;-5.30;99.90;;;;;;5090748;28;20055;-82
2021/12/26 02:54:32;;;;;;;6.53;1.80;;;-7.00;99.90;;;;;;5075895;28;20387;-83
2021/12/26 02:56:57;;;;;;;6.40;2.13;;;-7.00;99.90;;;;;;5088732;28;21237;-82
2021/12/26 02:59:23;;;;;;;4.70;1.98;;;-6.30;99.90;;;;;;5092050;28;20043;-82
2021/12/26 03:01:49;;;;;;;7.03;2.10;;;-6.90;99.90;;;;;;5085491;28;20043;-82
2021/12/26 03:04:14;;;;;;;3.90;1.42;;;-6.90;99.90;;;;;;5087648;27;20051;-82
2021/12/26 03:09:09;;;;;;;7.30;2.20;;;-6.90;99.90;;;;;;5097487;28;20420;-82
2021/12/26 03:11:38;;;;;;;7.00;1.90;;;-6.90;99.90;;;;;;5085984;27;20047;-82
2021/12/26 03:14:05;;;;;;;4.97;1.85;;;-5.50;99.90;;;;;;5077912;27;20078;-81
2021/12/26 03:16:31;;;;;;;5.20;2.05;;;-6.90;99.90;;;;;;5081807;27;21097;-82
2021/12/26 03:18:59;;;;;;;7.95;1.88;;;-6.90;99.90;;;;;;5085403;27;20111;-82
2021/12/26 03:21:27;;;;;;;8.25;1.73;;;-6.90;99.90;;;;;;5088588;27;20047;-82
2021/12/26 03:23:53;;;;;;;5.80;1.70;;;-6.90;99.90;;;;;;5082411;27;20047;-82
2021/12/26 03:26:19;;;;;;;7.15;1.88;;;-5.20;99.90;;;;;;5098297;28;20039;-82
2021/12/26 03:28:44;;;;;;;7.88;2.15;;;-6.60;99.90;;;;;;5087477;27;20051;-82
2021/12/26 03:31:10;;;;;;;4.20;1.70;;;-6.90;99.90;;;;;;5088216;27;20396;-82
2021/12/26 03:33:36;;;;;;;6.35;1.63;;;-6.60;99.90;;;;;;5095624;28;20134;-82
2021/12/26 03:36:02;;;;;;;5.28;1.80;;;-6.80;99.90;;;;;;5078556;28;20129;-82
2021/12/26 03:38:29;;;;;;;5.00;2.03;;;-6.90;99.90;;;;;;5086487;28;20081;-82
2021/12/26 03:40:55;;;;;;;7.47;2.38;;;-6.90;99.90;;;;;;5085272;28;20050;-82
2021/12/26 03:43:22;;;;;;;6.53;1.90;;;-6.90;99.90;;;;;;5092063;27;20428;-82
2021/12/26 03:45:50;;;;;;;4.78;2.00;;;-6.90;99.90;;;;;;5093933;28;20043;-82
2021/12/26 03:48:18;;;;;;;4.10;1.73;;;-6.90;99.90;;;;;;5090287;28;20093;-82
2021/12/26 03:50:44;;;;;;;5.25;1.85;;;-6.90;99.90;;;;;;5067728;28;20039;-82
2021/12/26 03:53:11;;;;;;;6.93;2.30;;;-6.90;99.90;;;;;;5067418;28;20043;-81
2021/12/26 03:55:37;;;;;;;5.32;1.80;;;-5.20;99.90;;;;;;5082082;28;20040;-81
2021/12/26 03:58:03;;;;;;;5.65;2.03;;;-7.00;99.90;;;;;;5100405;28;20079;-82
2021/12/26 04:00:29;;;;;;;8.20;2.20;;;-5.30;99.90;;;;;;5096125;28;20149;-82
2021/12/26 04:02:56;;;;;;;6.10;2.20;;;-7.00;99.90;;;;;;5081677;28;20535;-82
2021/12/26 04:05:23;;;;;;;5.78;2.30;;;-7.00;99.90;;;;;;5104243;28;20035;-82
2021/12/26 04:07:49;;;;;;;7.25;2.13;;;-7.00;99.90;;;;;;5103525;28;20521;-82
2021/12/26 04:10:16;;;;;;;5.45;1.80;;;-7.10;99.90;;;;;;5083686;28;20138;-82
2021/12/26 04:12:46;;;;;;;5.88;2.05;;;-7.10;99.90;;;;;;5081301;28;20097;-82
2021/12/26 04:15:15;;;;;;;4.93;2.03;;;-6.70;99.90;;;;;;5099111;28;20058;-82
2021/12/26 04:17:40;;;;;;;8.65;2.25;;;-7.10;99.90;;;;;;5085766;28;20146;-83
2021/12/26 04:20:07;;;;;;;7.13;2.38;;;-7.20;99.90;;;;;;5087257;27;20162;-82
2021/12/26 04:22:33;;;;;;;6.43;2.10;;;-7.20;99.90;;;;;;5096033;28;20065;-82
2021/12/26 04:25:00;;;;;;;5.50;1.85;;;-7.20;99.90;;;;;;5106134;28;20039;-82
2021/12/26 04:27:26;;;;;;;8.77;2.08;;;-7.30;99.90;;;;;;5082664;28;20428;-83
2021/12/26 04:29:53;;;;;;;6.32;2.00;;;-7.30;99.90;;;;;;5084235;28;20104;-82
2021/12/26 04:32:18;;;;;;;6.00;1.92;;;-7.30;99.90;;;;;;5085364;28;21117;-83
2021/12/26 04:34:45;;;;;;;5.28;1.92;;;-5.70;99.90;;;;;;5080787;28;20219;-82
2021/12/26 04:37:10;;;;;;;6.30;2.30;;;-6.30;99.90;;;;;;5103015;28;20074;-83
2021/12/26 04:39:36;;;;;;;7.15;2.30;;;-6.70;99.90;;;;;;5088031;28;20044;-82
2021/12/26 04:42:02;;;;;;;6.90;1.70;;;-6.10;99.90;;;;;;5087180;28;20111;-82
2021/12/26 04:44:28;;;;;;;6.50;1.88;;;-7.30;99.90;;;;;;5105536;27;20399;-82
2021/12/26 04:46:54;;;;;;;8.25;2.05;;;-7.00;99.90;;;;;;5110619;27;20043;-81
2021/12/26 04:49:20;;;;;;;6.57;2.17;;;-7.30;99.90;;;;;;5088966;27;20681;-83
2021/12/26 04:51:46;;;;;;;5.55;1.77;;;-6.80;99.90;;;;;;5093248;27;20038;-82
2021/12/26 04:54:12;;;;;;;5.85;1.77;;;-7.30;99.90;;;;;;5109930;27;20400;-82
2021/12/26 04:56:37;;;;;;;6.90;1.80;;;-7.30;99.90;;;;;;5109758;27;20049;-82
2021/12/26 04:59:04;;;;;;;4.97;1.80;;;-6.40;99.90;;;;;;5106834;27;20122;-82
2021/12/26 05:01:30;;;;;;;5.93;1.95;;;-7.30;99.90;;;;;;5107095;27;20437;-82
2021/12/26 05:03:56;;;;;;;5.68;2.05;;;-6.40;99.90;;;;;;5106643;27;20039;-82
2021/12/26 05:06:21;;;;;;;4.80;2.05;;;-7.20;99.90;;;;;;5098378;27;20035;-81
2021/12/26 05:08:47;;;;;;;8.50;2.10;;;-5.50;99.90;;;;;;5080234;27;20047;-82
2021/12/26 05:11:12;;;;;;;6.80;2.05;;;-7.20;99.90;;;;;;5101550;27;20047;-82
2021/12/26 05:13:38;;;;;;;5.45;2.08;;;-7.20;99.90;;;;;;5087466;27;20103;-82
2021/12/26 05:16:04;;;;;;;6.38;2.35;;;-7.20;99.90;;;;;;5103144;27;20035;-82
2021/12/26 05:18:30;;;;;;;6.82;2.08;;;-7.20;99.90;;;;;;5089596;27;20120;-82
2021/12/26 05:20:56;;;;;;;8.35;1.90;;;-6.70;99.90;;;;;;5109620;27;20027;-82
2021/12/26 05:23:22;;;;;;;6.95;2.05;;;-7.30;99.90;;;;;;5092374;27;20157;-82
2021/12/26 05:25:48;;;;;;;5.30;2.15;;;-6.90;99.90;;;;;;5126859;27;20047;-82
2021/12/26 05:28:14;;;;;;;4.82;1.85;;;-7.30;99.90;;;;;;5086890;27;20047;-83
2021/12/26 05:30:40;;;;;;;5.78;1.95;;;-7.40;99.90;;;;;;5092710;27;20107;-83
2021/12/26 05:33:06;;;;;;;7.25;2.17;;;-7.40;99.90;;;;;;5091581;27;20071;-83
2021/12/26 05:35:31;;;;;;;7.00;2.53;;;-7.40;99.90;;;;;;5106894;27;20668;-82
2021/12/26 05:37:58;;;;;;;5.95;2.00;;;-6.60;99.90;;;;;;5085604;27;20044;-82
2021/12/26 05:40:24;;;;;;;5.43;2.25;;;-7.40;99.90;;;;;;5087325;27;20162;-83
2021/12/26 05:42:50;;;;;;;6.78;1.95;;;-6.20;99.90;;;;;;5087475;27;20114;-82
2021/12/26 05:45:16;;;;;;;6.40;2.00;;;-7.20;99.90;;;;;;5106398;27;20047;-82
2021/12/26 05:47:42;;;;;;;8.82;3.85;;;-6.80;99.90;;;;;;5108271;27;20043;-83
2021/12/26 05:50:10;;;;;;;6.13;2.28;;;-7.50;99.90;;;;;;5109131;27;20122;-83
2021/12/26 05:52:36;;;;;;;6.63;1.90;;;-7.50;99.90;;;;;;5081182;27;20039;-82
2021/12/26 05:55:03;;;;;;;6.22;2.13;;;-7.50;99.90;;;;;;5090179;27;20088;-83
2021/12/26 05:57:29;;;;;;;5.00;2.10;;;-7.60;99.90;;;;;;5106572;27;20120;-83
2021/12/26 05:59:55;;;;;;;6.20;1.80;;;-7.60;99.90;;;;;;5103673;27;20043;-83
2021/12/26 06:02:20;;;;;;;6.10;1.95;;;-7.60;99.90;;;;;;5076063;27;20043;-83
2021/12/26 06:04:46;;;;;;;5.75;1.77;;;-7.60;99.90;;;;;;5107986;27;20043;-83
2021/12/26 06:07:12;;;;;;;8.70;2.17;;;-7.50;99.90;;;;;;5105376;27;20492;-83
2021/12/26 06:09:37;;;;;;;8.32;2.33;;;-6.80;99.90;;;;;;5108615;27;20447;-83
2021/12/26 06:12:03;;;;;;;7.53;1.83;;;-7.60;99.90;;;;;;5105359;27;20047;-83
2021/12/26 06:14:29;;;;;;;7.53;2.30;;;-7.60;99.90;;;;;;5089181;27;20044;-83
2021/12/26 06:16:55;;;;;;;8.43;2.63;;;-7.60;99.90;;;;;;5105986;27;20035;-83
2021/12/26 06:19:20;;;;;;;6.75;2.03;;;-6.50;99.90;;;;;;5090560;27;20445;-83
2021/12/26 06:21:46;;;;;;;7.75;1.98;;;-6.60;99.90;;;;;;5087666;27;20052;-84
2021/12/26 06:24:12;;;;;;;8.80;2.55;;;-7.60;99.90;;;;;;5109523;27;20091;-84
2021/12/26 06:26:37;;;;;;;6.68;1.85;;;-7.60;99.90;;;;;;5087180;27;20035;-84
2021/12/26 06:29:03;;;;;;;4.88;2.08;;;-7.60;99.90;;;;;;5091414;27;20039;-84
2021/12/26 06:31:29;;;;;;;5.15;2.53;;;-6.90;99.90;;;;;;5102808;27;20043;-84
2021/12/26 06:33:55;;;;;;;6.50;2.38;;;-7.10;99.90;;;;;;5087649;27;20525;-84
2021/12/26 06:36:20;;;;;;;6.20;2.10;;;-6.50;99.90;;;;;;5101597;27;20043;-84
2021/12/26 06:38:46;;;;;;;6.25;1.90;;;-7.70;99.90;;;;;;5110021;27;20282;-81
2021/12/26 06:41:14;;;;;;;7.07;2.05;;;-7.20;99.90;;;;;;5109656;27;20043;-83
2021/12/26 06:43:42;;;;;;;8.82;2.50;;;-7.70;99.90;;;;;;5095428;27;20458;-82
2021/12/26 06:46:08;;;;;;;6.85;2.38;;;-6.10;99.90;;;;;;5106751;27;20081;-77
2021/12/26 06:48:35;;;;;;;6.72;2.10;;;-7.70;99.90;;;;;;5103100;27;20040;-77
2021/12/26 06:51:02;;;;;;;9.25;2.45;;;-7.70;99.90;;;;;;5085429;27;20051;-78
2021/12/26 06:53:28;;;;;;;7.40;2.92;;;-7.70;99.90;;;;;;5088897;27;20051;-77
2021/12/26 06:55:54;;;;;;;6.22;2.33;;;-7.70;99.90;;;;;;5095726;27;20051;-78
2021/12/26 06:58:19;;;;;;;5.72;2.40;;;-7.60;99.90;;;;;;5115102;27;20051;-78
2021/12/26 07:00:46;;;;;;;8.27;2.72;;;-7.60;99.90;;;;;;5076647;27;20039;-77
2021/12/26 07:03:12;;;;;;;5.43;2.15;;;-7.60;99.90;;;;;;5100038;27;20028;-78
2021/12/26 07:05:39;;;;;;;6.90;2.40;;;-7.60;99.90;;;;;;5104524;27;20083;-78
2021/12/26 07:08:05;;;;;;;8.75;2.40;;;-7.60;99.90;;;;;;5085897;27;20042;-78
2021/12/26 07:10:31;;;;;;;7.88;2.72;;;-7.60;99.90;;;;;;5088549;27;20495;-77
2021/12/26 07:12:57;;;;;;;7.97;2.28;;;-7.10;99.90;;;;;;5079976;27;20046;-78
2021/12/26 07:15:23;;;;;;;6.07;2.35;;;-6.30;99.90;;;;;;5086580;27;20039;-77
2021/12/26 07:17:49;;;;;;;10.38;2.67;;;-7.50;99.90;;;;;;5096690;27;20126;-78
2021/12/26 07:20:14;;;;;;;7.53;2.53;;;-7.50;99.90;;;;;;5102259;27;20069;-78
2021/12/26 07:22:42;;;;;;;5.95;2.30;;;-7.50;99.90;;;;;;5102729;27;20049;-78
2021/12/26 07:25:08;;;;;;;6.75;2.45;;;-7.50;99.90;;;;;;5112773;27;20080;-78
2021/12/26 07:27:34;;;;;;;7.32;2.58;;;-7.40;99.90;;;;;;5089624;27;20129;-79
2021/12/26 07:30:03;;;;;;;8.00;2.75;;;-7.40;99.90;;;;;;5077569;27;20059;-78
2021/12/26 07:32:29;;;;;;;7.30;2.35;;;-5.90;99.90;;;;;;5107180;27;20047;-78
2021/12/26 07:34:57;;;;;;;9.73;2.85;;;-7.30;99.90;;;;;;5080549;27;20392;-78
2021/12/26 07:37:23;;;;;;;9.55;2.58;;;-7.30;99.90;;;;;;5083920;28;20052;-78
2021/12/26 07:39:50;;;;;;;8.07;2.80;;;-7.30;99.90;;;;;;5099975;27;20662;-78
2021/12/26 07:42:15;;;;;;;7.90;2.67;;;-7.20;99.90;;;;;;5119052;27;20046;-78
2021/12/26 07:44:41;;;;;;;9.57;2.90;;;-7.20;99.90;;;;;;5088743;27;20043;-78
2021/12/26 07:47:07;;;;;;;9.85;2.63;;;-7.20;99.90;;;;;;5101490;28;20070;-78
2021/12/26 07:49:33;;;;;;;7.47;3.00;;;-7.10;99.90;;;;;;5087651;28;20102;-78
2021/12/26 07:51:59;;;;;;;9.35;2.80;;;-6.30;99.90;;;;;;5081674;28;20589;-78
2021/12/26 07:54:25;;;;;;;8.30;3.00;;;-7.10;99.90;;;;;;5105047;28;20067;-78
2021/12/26 07:56:53;;;;;;;6.68;2.65;;;-7.00;99.90;;;;;;5097554;27;20047;-78
2021/12/26 07:59:18;;;;;;;7.90;2.47;;;-7.00;99.90;;;;;;5077247;28;20054;-78
2021/12/26 08:01:45;;;;;;;8.60;2.95;;;-7.00;99.90;;;;;;5088884;28;20040;-78
2021/12/26 08:04:13;;;;;;;7.90;2.60;;;-7.00;99.90;;;;;;5087619;28;20047;-78
2021/12/26 08:06:40;;;;;;;8.10;2.92;;;-6.90;99.90;;;;;;5091270;28;20039;-78
2021/12/26 08:09:06;;;;;;;6.40;2.58;;;-6.90;99.90;;;;;;5105977;27;20051;-77
2021/12/26 08:11:33;;;;;;;7.80;2.80;;;-6.90;99.90;;;;;;5123479;27;20073;-78
2021/12/26 08:13:59;;;;;;;6.70;2.45;;;-6.90;99.90;;;;;;5090286;28;20043;-77
2021/12/26 08:16:26;;;;;;;8.10;3.08;;;-6.90;99.90;;;;;;5088949;28;20111;-78
2021/12/26 08:18:52;;;;;;;8.70;2.58;;;-6.80;99.90;;;;;;5075695;27;20039;-78
2021/12/26 08:21:18;;;;;;;7.97;2.85;;;-6.80;99.90;;;;;;5094449;27;20127;-78
2021/12/26 08:23:44;;;;;;;9.48;3.13;;;-6.70;99.90;;;;;;5073412;27;20207;-78
2021/12/26 08:26:09;;;;;;;8.27;2.85;;;-6.50;99.90;;;;;;5074318;27;20046;-77
2021/12/26 08:28:35;;;;;;;5.68;2.60;;;-6.70;99.90;;;;;;5091106;27;20058;-77
2021/12/26 08:31:01;;;;;;;7.28;2.70;;;-6.70;99.90;;;;;;5093319;27;20454;-80
2021/12/26 08:33:27;;;;;;;8.43;2.72;;;-6.10;99.90;;;;;;5090855;27;20043;-78
2021/12/26 08:35:53;;;;;;;6.45;2.90;;;-6.60;99.90;;;;;;5091434;27;20069;-77
2021/12/26 08:38:22;;;;;;;6.95;2.80;;;-6.50;99.90;;;;;;5115755;27;20050;-76
2021/12/26 08:40:49;;;;;;;8.68;2.90;;;-6.00;99.90;;;;;;5086927;27;20039;-76
2021/12/26 08:43:16;;;;;;;10.60;3.33;;;-6.40;99.90;;;;;;5097884;27;20043;-77
2021/12/26 08:45:41;;;;;;;11.73;3.38;;;-6.40;99.90;;;;;;5119209;27;20039;-76
2021/12/26 08:48:07;;;;;;;7.05;2.78;;;-6.30;99.90;;;;;;5088400;27;20098;-77
2021/12/26 08:50:33;;;;;;;8.98;3.20;;;-5.60;99.90;;;;;;5099923;27;20050;-78
2021/12/26 08:52:59;;;;;;;6.72;3.13;;;-6.20;99.90;;;;;;5091752;27;20491;-78
2021/12/26 08:55:25;;;;;;;7.47;3.30;;;-6.10;99.90;;;;;;5087823;27;20040;-78
2021/12/26 08:57:53;;;;;;;7.88;3.15;;;-6.10;99.90;;;;;;5085846;27;20038;-77
2021/12/26 09:00:20;;;;;;;11.07;3.45;;;-6.10;99.90;;;;;;5083822;27;20770;-77
2021/12/26 09:02:47;;;;;;;10.98;3.25;;;-6.00;99.90;;;;;;5099374;27;20073;-78
2021/12/26 09:05:13;;;;;;;7.70;2.88;;;-5.90;99.90;;;;;;5100582;27;20506;-78
2021/12/26 09:07:40;;;;;;;8.10;3.60;;;-5.90;99.90;;;;;;5093622;27;20770;-77
2021/12/26 09:10:07;;;;;;;7.63;3.08;;;-5.90;99.90;;;;;;5090893;27;20039;-77
2021/12/26 09:12:33;;;;;;;6.60;3.00;;;-5.80;99.90;;;;;;5087011;27;20458;-77
2021/12/26 09:14:59;;;;;;;7.40;3.00;;;-5.80;99.90;;;;;;5091810;27;20046;-72
2021/12/26 09:17:25;;;;;;;9.57;3.55;;;-5.70;99.90;;;;;;5103062;27;20451;-72
2021/12/26 09:19:50;;;;;;;10.05;3.22;;;-5.60;99.90;;;;;;5122587;27;20036;-77
2021/12/26 09:22:20;;;;;;;8.70;3.65;;;-5.60;99.90;;;;;;5078130;27;20059;-77
2021/12/26 09:24:46;;;;;;;7.55;3.55;;;-4.30;99.90;;;;;;5081542;27;20527;-77
2021/12/26 09:27:14;;;;;;;10.82;3.78;;;-5.30;99.90;;;;;;5078829;27;20058;-77
2021/12/26 09:29:40;;;;;;;13.65;4.05;;;-5.30;99.90;;;;;;5075631;27;20058;-77
2021/12/26 09:32:06;;;;;;;8.77;4.00;;;-5.20;99.90;;;;;;5085029;27;20047;-77
2021/12/26 09:34:36;;;;;;;8.10;3.30;;;-5.20;99.90;;;;;;5096907;27;20411;-78
2021/12/26 09:37:05;;;;;;;6.65;3.03;;;-5.10;99.90;;;;;;5073296;27;20114;-77
2021/12/26 09:39:31;;;;;;;9.38;3.72;;;-5.10;99.90;;;;;;5088762;27;20085;-78
2021/12/26 09:41:57;;;;;;;7.57;3.60;;;-5.10;99.90;;;;;;5105216;27;20044;-78
2021/12/26 09:44:23;;;;;;;9.30;4.07;;;-5.10;99.90;;;;;;5067583;27;20081;-78
2021/12/26 09:46:49;;;;;;;8.45;3.53;;;-5.00;99.90;;;;;;5100393;27;20043;-79
2021/12/26 09:49:16;;;;;;;9.10;4.07;;;-4.90;99.90;;;;;;5091139;27;20043;-79
2021/12/26 09:51:41;;;;;;;8.75;3.70;;;-4.90;99.90;;;;;;5084041;27;20075;-79
2021/12/26 09:54:08;;;;;;;7.53;3.67;;;-4.80;99.90;;;;;;5114011;27;20192;-79
2021/12/26 09:56:34;;;;;;;9.40;3.97;;;-4.80;99.90;;;;;;5095147;27;20039;-80
2021/12/26 09:59:06;;;;;;;10.20;3.67;;;-4.70;99.90;;;;;;5084901;27;20047;-80
2021/12/26 10:01:40;;;;;;;;;;;-4.70;99.90;;;;;;5085980;27;20118;-79
2021/12/26 10:04:34;;;;;;;8.63;3.47;;;-4.60;99.90;;;;;;5086360;27;19923;-79
2021/12/26 10:07:06;;;;;;;7.97;3.60;;;-4.50;99.90;;;;;;5089560;27;20142;-80
2021/12/26 10:09:36;;;;;;;7.20;3.40;;;-4.40;99.90;;;;;;5088347;27;20057;-80
2021/12/26 10:12:03;;;;;;;8.48;3.55;;;-4.40;99.90;;;;;;5076490;27;20043;-76
2021/12/26 10:14:33;;;;;;;7.68;3.67;;;-4.30;99.90;;;;;;5072808;27;20137;-81
2021/12/26 10:17:09;;;;;;;9.40;3.53;;;-4.30;99.90;;;;;;5081886;27;20067;-80
2021/12/26 10:19:39;;;;;;;8.75;4.15;;;-4.20;99.90;;;;;;5076896;27;20043;-81
2021/12/26 10:22:07;;;;;;;8.20;3.20;;;-4.10;99.90;;;;;;5096105;27;20039;-81
2021/12/26 10:24:36;;;;;;;8.93;3.72;;;-4.00;99.90;;;;;;5087436;27;20514;-81
2021/12/26 10:27:20;;;;;;;7.90;3.80;;;-4.60;99.90;;;;;;5098815;27;20036;-81
2021/12/26 10:29:48;;;;;;;7.32;3.58;;;-3.90;99.90;;;;;;5102510;27;20114;-81
2021/12/26 10:32:18;;;;;;;8.13;3.92;;;-3.90;99.90;;;;;;5106965;27;20040;-81
2021/12/26 10:34:59;;;;;;;12.75;4.00;;;-3.80;99.90;;;;;;5099165;27;20051;-80
2021/12/26 10:37:36;;;;;;;7.00;3.05;;;-3.70;99.90;;;;;;5100812;27;20038;-80
2021/12/26 10:40:06;;;;;;;8.25;3.50;;;-3.70;99.90;;;;;;5110123;27;20163;-80
2021/12/26 10:42:35;;;;;;;7.70;3.35;;;-3.60;99.90;;;;;;5106989;27;20826;-80
2021/12/26 10:45:03;;;;;;;8.10;3.20;;;-3.60;99.90;;;;;;5089591;27;20040;-81
2021/12/26 10:47:31;;;;;;;8.70;3.50;;;-2.20;99.90;;;;;;5083865;27;20051;-80
2021/12/26 10:50:11;;;;;;;10.13;4.05;;;-3.40;99.90;;;;;;5129534;27;20069;-80
2021/12/26 10:52:58;;;;;;;7.63;3.38;;;-3.40;99.90;;;;;;5092939;27;20069;-82
2021/12/26 10:55:54;;;;;;;10.85;4.03;;;-3.30;99.90;;;;;;5131724;27;20043;-83
2021/12/26 10:58:21;;;;;;;8.65;3.50;;;-3.20;99.90;;;;;;5082293;27;20494;-83
2021/12/26 11:00:55;;;;;;;12.50;5.45;;;-3.20;99.90;;;;;;5081630;27;20031;-83
2021/12/26 11:03:23;;;;;;;8.73;3.47;;;-3.10;99.90;;;;;;5074290;27;20039;-80
2021/12/26 11:05:53;;;;;;;11.75;4.50;;;-3.10;99.90;;;;;;5082930;27;20048;-83
2021/12/26 11:08:29;;;;;;;10.60;3.53;;;-3.10;99.90;;;;;;5078504;27;20062;-82
2021/12/26 11:10:57;;;;;;;14.05;5.47;;;-3.00;99.90;;;;;;5088084;27;20047;-82
2021/12/26 11:13:32;;;;;;;13.13;4.82;;;-2.90;99.90;;;;;;5073387;27;20043;-82
2021/12/26 11:16:06;;;;;;;12.93;3.85;;;-2.90;99.90;;;;;;5092511;27;20049;-83
2021/12/26 11:18:33;;;;;;;18.25;5.13;;;-1.50;99.90;;;;;;5088579;27;20078;-83
2021/12/26 11:21:13;;;;;;;9.55;3.50;;;-2.70;99.90;;;;;;5112968;27;20054;-83
2021/12/26 11:23:41;;;;;;;13.13;5.00;;;-2.60;99.90;;;;;;5076985;27;20043;-83
2021/12/26 11:26:16;;;;;;;9.05;3.65;;;-2.60;99.90;;;;;;5079667;27;20050;-83
2021/12/26 11:28:47;;;;;;;9.95;3.20;;;-2.10;99.90;;;;;;5088333;27;20043;-83
2021/12/26 11:31:25;;;;;;;9.38;3.60;;;-2.40;99.90;;;;;;5081347;27;20784;-84
2021/12/26 11:33:56;;;;;;;6.38;2.60;;;-2.40;99.90;;;;;;5084825;27;20055;-84
2021/12/26 11:36:24;;;;;;;7.85;3.38;;;-2.30;99.90;;;;;;5084052;27;20592;-83
2021/12/26 11:38:52;;;;;;;7.18;3.42;;;-2.30;99.90;;;;;;5063119;27;20051;-84
2021/12/26 11:41:41;;;;;;;12.90;4.55;;;-2.20;99.90;;;;;;5100134;27;20454;-83
2021/12/26 11:44:41;;;;;;;8.45;2.80;;;-2.20;99.90;;;;;;5087480;27;20043;-83
2021/12/26 11:47:16;;;;;;;6.47;2.90;;;-2.20;99.90;;;;;;5086160;27;20504;-83
2021/12/26 11:50:21;;;;;;;9.60;3.42;;;-2.10;99.90;;;;;;5069926;27;20047;-83
2021/12/26 11:52:59;;;;;;;6.45;2.78;;;-2.10;99.90;;;;;;5055811;27;20054;-83
2021/12/26 11:55:44;;;;;;;7.07;2.75;;;-2.00;99.90;;;;;;5064793;27;20071;-83
2021/12/26 11:58:28;;;;;;;6.72;2.95;;;-1.90;99.90;;;;;;5080826;27;20391;-80
2021/12/26 12:00:54;;;;;;;9.93;3.47;;;-1.90;99.90;;;;;;5072401;28;20572;-81
2021/12/26 12:03:23;;;;;;;6.90;3.53;;;-1.90;99.90;;;;;;5075593;27;20514;-81
2021/12/26 12:05:50;;;;;;;7.30;3.17;;;-1.80;99.90;;;;;;5108278;28;21926;-82
2021/12/26 12:08:32;;;;;;;8.13;3.33;;;-1.80;99.90;;;;;;5072012;28;20323;-83
2021/12/26 12:11:01;;;;;;;7.55;3.40;;;-1.70;99.90;;;;;;5077994;28;20080;-82
2021/12/26 12:13:39;;;;;;;9.50;4.55;;;-1.70;99.90;;;;;;5088473;28;20582;-83
2021/12/26 12:16:23;;;;;;;10.05;3.20;;;-1.60;99.90;;;;;;5090485;28;20574;-83
2021/12/26 12:18:50;;;;;;;8.38;3.38;;;-1.60;99.90;;;;;;5089673;28;20053;-83
2021/12/26 12:21:30;;;;;;;7.65;3.25;;;-1.50;99.90;;;;;;5089425;28;20059;-83
2021/12/26 12:23:57;;;;;;;6.63;2.88;;;-1.50;99.90;;;;;;5077042;28;21008;-84
2021/12/26 12:26:49;;;;;;;8.48;3.15;;;-1.50;99.90;;;;;;5073442;27;20083;-83
2021/12/26 12:29:24;;;;;;;8.93;3.45;;;-1.50;99.90;;;;;;5104373;28;20092;-83
2021/12/26 12:32:08;;;;;;;7.50;3.33;;;-1.50;99.90;;;;;;5092740;28;20201;-83
2021/12/26 12:34:56;;;;;;;8.77;3.58;;;-1.50;99.90;;;;;;5069633;28;20733;-84
2021/12/26 12:37:36;;;;;;;7.05;3.17;;;-1.50;99.90;;;;;;5071150;27;20047;-85
2021/12/26 12:40:25;;;;;;;10.82;3.60;;;-1.50;99.90;;;;;;5091256;28;20039;-85
2021/12/26 12:43:07;;;;;;;7.35;3.40;;;-1.40;99.90;;;;;;5074139;28;20048;-84
2021/12/26 12:45:53;;;;;;;8.30;3.60;;;-1.40;99.90;;;;;;5093480;28;20105;-85
2021/12/26 12:48:30;;;;;;;9.57;3.20;;;-1.40;99.90;;;;;;5063964;28;20060;-85
2021/12/26 12:51:00;;;;;;;9.20;3.42;;;-1.40;99.90;;;;;;5068395;28;21837;-84
2021/12/26 12:53:47;;;;;;;8.65;3.70;;;-1.30;99.90;;;;;;5069557;28;20385;-84
2021/12/26 12:56:35;;;;;;;7.38;3.40;;;-1.30;99.90;;;;;;5076096;28;20118;-86
2021/12/26 12:59:30;;;;;;;7.85;3.30;;;-1.30;99.90;;;;;;5119265;27;20035;-84